sensor_id;sensor_type;location;lat;lon;timestamp;temperature;humidity
29731;DHT22;16639;51.488;0.152;2022-11-15T00:01:15;11.40;99.90
29731;DHT22;16639;51.488;0.152;2022-11-15T00:03:44;11.40;99.90
29731;DHT22;16639;51.488;0.152;2022-11-15T00:06:12;11.30;99.90
29731;DHT22;16639;51.488;0.152;2022-11-15T00:08:39;11.30;99.90
29731;DHT22;16639;51.488;0.152;2022-11-15T00:11:10;11.30;99.90
29731;DHT22;16639;51.488;0.152;2022-11-15T00:13:39;11.30;99.90
29731;DHT22;16639;51.488;0.152;2022-11-15T00:16:08;11.20;99.90
29731;DHT22;16639;51.488;0.152;2022-11-15T00:18:35;11.20;99.90
29731;DHT22;16639;51.488;0.152;2022-11-15T00:21:05;11.10;99.90
29731;DHT22;16639;51.488;0.152;2022-11-15T00:23:33;11.10;99.90
29731;DHT22;16639;51.488;0.152;2022-11-15T00:26:01;11.10;99.90
29731;DHT22;16639;51.488;0.152;2022-11-15T00:28:29;11.00;99.90
29731;DHT22;16639;51.488;0.152;2022-11-15T00:31:04;11.50;99.90
29731;DHT22;16639;51.488;0.152;2022-11-15T00:33:32;10.90;99.90
29731;DHT22;16639;51.488;0.152;2022-11-15T00:36:04;10.90;99.90
29731;DHT22;16639;51.488;0.152;2022-11-15T00:38:33;10.90;99.90
29731;DHT22;16639;51.488;0.152;2022-11-15T00:41:01;10.90;99.90
29731;DHT22;16639;51.488;0.152;2022-11-15T00:43:35;10.80;99.90
29731;DHT22;16639;51.488;0.152;2022-11-15T00:46:03;10.80;99.90
29731;DHT22;16639;51.488;0.152;2022-11-15T00:48:31;10.80;99.90
29731;DHT22;16639;51.488;0.152;2022-11-15T00:50:58;10.70;99.90
29731;DHT22;16639;51.488;0.152;2022-11-15T00:53:25;10.40;99.90
29731;DHT22;16639;51.488;0.152;2022-11-15T00:55:53;10.70;99.90
29731;DHT22;16639;51.488;0.152;2022-11-15T00:58:20;10.70;99.90
29731;DHT22;16639;51.488;0.152;2022-11-15T01:00:48;10.70;99.90
29731;DHT22;16639;51.488;0.152;2022-11-15T01:03:15;10.70;99.90
29731;DHT22;16639;51.488;0.152;2022-11-15T01:05:42;10.60;99.90
29731;DHT22;16639;51.488;0.152;2022-11-15T01:08:13;10.60;99.90
29731;DHT22;16639;51.488;0.152;2022-11-15T01:10:41;10.60;99.90
29731;DHT22;16639;51.488;0.152;2022-11-15T01:13:08;10.60;99.90
29731;DHT22;16639;51.488;0.152;2022-11-15T01:15:39;10.50;99.90
29731;DHT22;16639;51.488;0.152;2022-11-15T01:18:07;10.50;99.90
29731;DHT22;16639;51.488;0.152;2022-11-15T01:20:39;10.50;99.90
29731;DHT22;16639;51.488;0.152;2022-11-15T01:23:06;10.50;99.90
29731;DHT22;16639;51.488;0.152;2022-11-15T01:25:34;10.50;99.90
29731;DHT22;16639;51.488;0.152;2022-11-15T01:28:01;10.50;99.90
29731;DHT22;16639;51.488;0.152;2022-11-15T01:30:28;10.50;99.90
29731;DHT22;16639;51.488;0.152;2022-11-15T01:32:56;10.50;99.90
29731;DHT22;16639;51.488;0.152;2022-11-15T01:35:23;10.30;99.90
29731;DHT22;16639;51.488;0.152;2022-11-15T01:37:51;10.50;99.90
29731;DHT22;16639;51.488;0.152;2022-11-15T01:40:18;10.40;99.90
29731;DHT22;16639;51.488;0.152;2022-11-15T01:42:45;10.40;99.90
29731;DHT22;16639;51.488;0.152;2022-11-15T01:45:14;10.40;99.90
29731;DHT22;16639;51.488;0.152;2022-11-15T01:47:52;10.40;99.90
29731;DHT22;16639;51.488;0.152;2022-11-15T01:50:28;10.40;99.90
29731;DHT22;16639;51.488;0.152;2022-11-15T01:52:57;10.40;99.90
29731;DHT22;16639;51.488;0.152;2022-11-15T01:55:26;10.40;99.90
29731;DHT22;16639;51.488;0.152;2022-11-15T01:57:57;10.40;99.90
29731;DHT22;16639;51.488;0.152;2022-11-15T02:00:27;10.40;99.90
29731;DHT22;16639;51.488;0.152;2022-11-15T02:02:55;10.40;99.90
29731;DHT22;16639;51.488;0.152;2022-11-15T02:05:22;10.40;99.90
29731;DHT22;16639;51.488;0.152;2022-11-15T02:07:50;10.40;99.90
29731;DHT22;16639;51.488;0.152;2022-11-15T02:10:20;10.40;99.90
29731;DHT22;16639;51.488;0.152;2022-11-15T02:12:49;10.40;99.90
29731;DHT22;16639;51.488;0.152;2022-11-15T02:15:17;10.40;99.90
29731;DHT22;16639;51.488;0.152;2022-11-15T02:18:37;10.70;99.90
29731;DHT22;16639;51.488;0.152;2022-11-15T02:21:27;10.40;99.90
29731;DHT22;16639;51.488;0.152;2022-11-15T02:32:16;10.40;99.90
29731;DHT22;16639;51.488;0.152;2022-11-15T02:34:50;10.50;99.90
29731;DHT22;16639;51.488;0.152;2022-11-15T02:37:29;10.40;99.90
29731;DHT22;16639;51.488;0.152;2022-11-15T02:40:13;10.40;99.90
29731;DHT22;16639;51.488;0.152;2022-11-15T02:42:50;10.40;99.90
29731;DHT22;16639;51.488;0.152;2022-11-15T02:45:48;10.50;99.90
29731;DHT22;16639;51.488;0.152;2022-11-15T02:48:18;10.40;99.90
29731;DHT22;16639;51.488;0.152;2022-11-15T02:50:47;10.40;99.90
29731;DHT22;16639;51.488;0.152;2022-11-15T02:53:15;10.40;99.90
29731;DHT22;16639;51.488;0.152;2022-11-15T02:55:47;10.80;99.90
29731;DHT22;16639;51.488;0.152;2022-11-15T03:03:55;10.40;99.90
29731;DHT22;16639;51.488;0.152;2022-11-15T03:12:39;10.40;99.90
29731;DHT22;16639;51.488;0.152;2022-11-15T03:17:41;10.40;99.90
29731;DHT22;16639;51.488;0.152;2022-11-15T03:20:11;10.40;99.90
29731;DHT22;16639;51.488;0.152;2022-11-15T03:22:44;10.50;99.90
29731;DHT22;16639;51.488;0.152;2022-11-15T03:25:17;10.40;99.90
29731;DHT22;16639;51.488;0.152;2022-11-15T03:27:50;10.50;99.90
29731;DHT22;16639;51.488;0.152;2022-11-15T03:30:18;11.00;99.90
29731;DHT22;16639;51.488;0.152;2022-11-15T03:32:54;10.70;99.90
29731;DHT22;16639;51.488;0.152;2022-11-15T03:35:24;10.70;99.90
29731;DHT22;16639;51.488;0.152;2022-11-15T03:38:22;10.80;99.90
29731;DHT22;16639;51.488;0.152;2022-11-15T03:41:00;10.80;99.90
29731;DHT22;16639;51.488;0.152;2022-11-15T03:44:04;10.90;99.90
29731;DHT22;16639;51.488;0.152;2022-11-15T03:46:43;10.90;99.90
29731;DHT22;16639;51.488;0.152;2022-11-15T03:49:21;10.60;99.90
29731;DHT22;16639;51.488;0.152;2022-11-15T03:51:51;10.90;99.90
29731;DHT22;16639;51.488;0.152;2022-11-15T03:54:18;11.00;99.90
29731;DHT22;16639;51.488;0.152;2022-11-15T03:56:46;10.80;99.90
29731;DHT22;16639;51.488;0.152;2022-11-15T03:59:13;11.00;99.90
29731;DHT22;16639;51.488;0.152;2022-11-15T04:01:40;11.10;99.90
29731;DHT22;16639;51.488;0.152;2022-11-15T04:04:08;11.10;99.90
29731;DHT22;16639;51.488;0.152;2022-11-15T04:06:36;11.20;99.90
29731;DHT22;16639;51.488;0.152;2022-11-15T04:09:03;11.20;99.90
29731;DHT22;16639;51.488;0.152;2022-11-15T04:11:30;11.10;99.90
29731;DHT22;16639;51.488;0.152;2022-11-15T04:13:58;11.20;99.90
29731;DHT22;16639;51.488;0.152;2022-11-15T04:16:25;11.20;99.90
29731;DHT22;16639;51.488;0.152;2022-11-15T04:18:52;11.20;99.90
29731;DHT22;16639;51.488;0.152;2022-11-15T04:21:38;11.20;99.90
29731;DHT22;16639;51.488;0.152;2022-11-15T04:24:24;11.20;99.90
29731;DHT22;16639;51.488;0.152;2022-11-15T04:26:51;11.20;99.90
29731;DHT22;16639;51.488;0.152;2022-11-15T04:29:18;11.10;99.90
29731;DHT22;16639;51.488;0.152;2022-11-15T04:32:05;11.10;99.90
29731;DHT22;16639;51.488;0.152;2022-11-15T04:34:33;11.10;99.90
29731;DHT22;16639;51.488;0.152;2022-11-15T04:37:01;11.10;99.90
29731;DHT22;16639;51.488;0.152;2022-11-15T04:39:41;11.10;99.90
29731;DHT22;16639;51.488;0.152;2022-11-15T04:42:09;11.10;99.90
29731;DHT22;16639;51.488;0.152;2022-11-15T04:44:36;11.20;99.90
29731;DHT22;16639;51.488;0.152;2022-11-15T04:47:04;11.20;99.90
29731;DHT22;16639;51.488;0.152;2022-11-15T04:49:31;11.20;99.90
29731;DHT22;16639;51.488;0.152;2022-11-15T04:51:59;11.20;99.90
29731;DHT22;16639;51.488;0.152;2022-11-15T04:54:26;11.20;99.90
29731;DHT22;16639;51.488;0.152;2022-11-15T04:56:53;11.20;99.90
29731;DHT22;16639;51.488;0.152;2022-11-15T04:59:21;11.20;99.90
29731;DHT22;16639;51.488;0.152;2022-11-15T05:01:48;11.30;99.90
29731;DHT22;16639;51.488;0.152;2022-11-15T05:04:15;11.20;99.90
29731;DHT22;16639;51.488;0.152;2022-11-15T05:06:51;11.30;99.90
29731;DHT22;16639;51.488;0.152;2022-11-15T05:09:20;11.30;99.90
29731;DHT22;16639;51.488;0.152;2022-11-15T05:11:48;11.30;99.90
29731;DHT22;16639;51.488;0.152;2022-11-15T05:14:16;11.30;99.90
29731;DHT22;16639;51.488;0.152;2022-11-15T05:16:43;11.30;99.90
29731;DHT22;16639;51.488;0.152;2022-11-15T05:19:11;11.40;99.90
29731;DHT22;16639;51.488;0.152;2022-11-15T05:21:38;11.40;99.90
29731;DHT22;16639;51.488;0.152;2022-11-15T05:24:06;11.40;99.90
29731;DHT22;16639;51.488;0.152;2022-11-15T05:26:33;11.40;99.90
29731;DHT22;16639;51.488;0.152;2022-11-15T05:29:00;11.50;99.90
29731;DHT22;16639;51.488;0.152;2022-11-15T05:31:28;11.50;99.90
29731;DHT22;16639;51.488;0.152;2022-11-15T05:33:56;11.60;99.90
29731;DHT22;16639;51.488;0.152;2022-11-15T05:36:35;11.60;99.90
29731;DHT22;16639;51.488;0.152;2022-11-15T05:39:05;11.60;99.90
29731;DHT22;16639;51.488;0.152;2022-11-15T05:41:46;11.60;99.90
29731;DHT22;16639;51.488;0.152;2022-11-15T05:44:18;11.60;99.90
29731;DHT22;16639;51.488;0.152;2022-11-15T05:46:49;11.70;99.90
29731;DHT22;16639;51.488;0.152;2022-11-15T05:49:19;11.70;99.90
29731;DHT22;16639;51.488;0.152;2022-11-15T05:51:48;11.70;99.90
29731;DHT22;16639;51.488;0.152;2022-11-15T05:54:16;11.70;99.90
29731;DHT22;16639;51.488;0.152;2022-11-15T05:56:44;11.70;99.90
29731;DHT22;16639;51.488;0.152;2022-11-15T05:59:12;11.70;99.90
29731;DHT22;16639;51.488;0.152;2022-11-15T06:01:40;11.80;99.90
29731;DHT22;16639;51.488;0.152;2022-11-15T06:04:07;12.00;99.90
29731;DHT22;16639;51.488;0.152;2022-11-15T06:06:35;11.80;99.90
29731;DHT22;16639;51.488;0.152;2022-11-15T06:09:02;11.90;99.90
29731;DHT22;16639;51.488;0.152;2022-11-15T06:11:29;11.90;99.90
29731;DHT22;16639;51.488;0.152;2022-11-15T06:13:57;12.00;99.90
29731;DHT22;16639;51.488;0.152;2022-11-15T06:16:24;11.90;99.90
29731;DHT22;16639;51.488;0.152;2022-11-15T06:18:51;11.90;99.90
29731;DHT22;16639;51.488;0.152;2022-11-15T06:21:19;12.00;99.90
29731;DHT22;16639;51.488;0.152;2022-11-15T06:23:46;11.90;99.90
29731;DHT22;16639;51.488;0.152;2022-11-15T06:26:13;12.00;99.90
29731;DHT22;16639;51.488;0.152;2022-11-15T06:28:41;12.00;99.90
29731;DHT22;16639;51.488;0.152;2022-11-15T06:31:09;12.00;99.90
29731;DHT22;16639;51.488;0.152;2022-11-15T06:33:38;12.00;99.90
29731;DHT22;16639;51.488;0.152;2022-11-15T06:36:11;12.00;99.90
29731;DHT22;16639;51.488;0.152;2022-11-15T06:38:44;12.00;99.90
29731;DHT22;16639;51.488;0.152;2022-11-15T06:41:13;12.00;99.90
29731;DHT22;16639;51.488;0.152;2022-11-15T06:43:41;11.60;99.90
29731;DHT22;16639;51.488;0.152;2022-11-15T06:46:08;12.10;99.90
29731;DHT22;16639;51.488;0.152;2022-11-15T06:48:36;12.10;99.90
29731;DHT22;16639;51.488;0.152;2022-11-15T06:51:04;12.00;99.90
29731;DHT22;16639;51.488;0.152;2022-11-15T06:53:34;12.40;99.90
29731;DHT22;16639;51.488;0.152;2022-11-15T06:56:04;12.10;99.90
29731;DHT22;16639;51.488;0.152;2022-11-15T06:58:32;12.10;99.90
29731;DHT22;16639;51.488;0.152;2022-11-15T07:01:10;12.10;99.90
29731;DHT22;16639;51.488;0.152;2022-11-15T07:03:40;12.10;99.90
29731;DHT22;16639;51.488;0.152;2022-11-15T07:06:08;12.00;99.90
29731;DHT22;16639;51.488;0.152;2022-11-15T07:08:36;12.10;99.90
29731;DHT22;16639;51.488;0.152;2022-11-15T07:11:06;12.10;99.90
29731;DHT22;16639;51.488;0.152;2022-11-15T07:13:35;12.10;99.90
29731;DHT22;16639;51.488;0.152;2022-11-15T07:16:08;12.10;99.90
29731;DHT22;16639;51.488;0.152;2022-11-15T07:18:38;12.10;99.90
29731;DHT22;16639;51.488;0.152;2022-11-15T07:21:08;12.00;99.90
29731;DHT22;16639;51.488;0.152;2022-11-15T07:23:40;12.10;99.90
29731;DHT22;16639;51.488;0.152;2022-11-15T07:26:08;12.10;99.90
29731;DHT22;16639;51.488;0.152;2022-11-15T07:28:36;12.10;99.90
29731;DHT22;16639;51.488;0.152;2022-11-15T07:31:08;12.10;99.90
29731;DHT22;16639;51.488;0.152;2022-11-15T07:33:36;12.10;99.90
29731;DHT22;16639;51.488;0.152;2022-11-15T07:36:05;12.10;99.90
29731;DHT22;16639;51.488;0.152;2022-11-15T07:38:34;12.10;99.90
29731;DHT22;16639;51.488;0.152;2022-11-15T07:41:09;12.20;99.90
29731;DHT22;16639;51.488;0.152;2022-11-15T07:43:36;12.20;99.90
29731;DHT22;16639;51.488;0.152;2022-11-15T07:46:06;12.20;99.90
29731;DHT22;16639;51.488;0.152;2022-11-15T07:48:37;12.20;99.90
29731;DHT22;16639;51.488;0.152;2022-11-15T07:51:12;12.20;99.90
29731;DHT22;16639;51.488;0.152;2022-11-15T07:53:44;12.20;99.90
29731;DHT22;16639;51.488;0.152;2022-11-15T07:56:12;12.20;99.90
29731;DHT22;16639;51.488;0.152;2022-11-15T07:58:40;12.20;99.90
29731;DHT22;16639;51.488;0.152;2022-11-15T08:01:09;12.20;99.90
29731;DHT22;16639;51.488;0.152;2022-11-15T08:03:37;12.20;99.90
29731;DHT22;16639;51.488;0.152;2022-11-15T08:06:05;12.20;99.90
29731;DHT22;16639;51.488;0.152;2022-11-15T08:08:32;12.20;99.90
29731;DHT22;16639;51.488;0.152;2022-11-15T08:13:45;11.90;99.90
29731;DHT22;16639;51.488;0.152;2022-11-15T08:16:13;12.20;99.90
29731;DHT22;16639;51.488;0.152;2022-11-15T08:18:40;12.20;99.90
29731;DHT22;16639;51.488;0.152;2022-11-15T08:21:09;12.10;99.90
29731;DHT22;16639;51.488;0.152;2022-11-15T08:23:44;12.00;99.90
29731;DHT22;16639;51.488;0.152;2022-11-15T08:26:12;12.00;99.90
29731;DHT22;16639;51.488;0.152;2022-11-15T08:28:39;12.00;99.90
29731;DHT22;16639;51.488;0.152;2022-11-15T08:31:06;12.00;99.90
29731;DHT22;16639;51.488;0.152;2022-11-15T08:33:33;12.00;99.90
29731;DHT22;16639;51.488;0.152;2022-11-15T08:36:02;12.00;99.90
29731;DHT22;16639;51.488;0.152;2022-11-15T08:38:29;11.90;99.90
29731;DHT22;16639;51.488;0.152;2022-11-15T08:41:04;11.90;99.90
29731;DHT22;16639;51.488;0.152;2022-11-15T08:43:33;11.80;99.90
29731;DHT22;16639;51.488;0.152;2022-11-15T08:46:01;11.90;99.90
29731;DHT22;16639;51.488;0.152;2022-11-15T08:48:29;11.90;99.90
29731;DHT22;16639;51.488;0.152;2022-11-15T08:50:57;11.90;99.90
29731;DHT22;16639;51.488;0.152;2022-11-15T08:53:25;11.90;99.90
29731;DHT22;16639;51.488;0.152;2022-11-15T08:55:53;11.90;99.90
29731;DHT22;16639;51.488;0.152;2022-11-15T08:58:20;11.90;99.90
29731;DHT22;16639;51.488;0.152;2022-11-15T09:00:47;11.90;99.90
29731;DHT22;16639;51.488;0.152;2022-11-15T09:03:15;12.00;99.90
29731;DHT22;16639;51.488;0.152;2022-11-15T09:05:42;12.00;99.90
29731;DHT22;16639;51.488;0.152;2022-11-15T09:08:10;12.00;99.90
29731;DHT22;16639;51.488;0.152;2022-11-15T09:11:03;12.10;99.90
29731;DHT22;16639;51.488;0.152;2022-11-15T09:13:31;12.00;99.90
29731;DHT22;16639;51.488;0.152;2022-11-15T09:15:59;12.90;99.90
29731;DHT22;16639;51.488;0.152;2022-11-15T09:18:27;12.20;99.90
29731;DHT22;16639;51.488;0.152;2022-11-15T09:20:57;12.10;99.90
29731;DHT22;16639;51.488;0.152;2022-11-15T09:23:26;12.10;99.90
29731;DHT22;16639;51.488;0.152;2022-11-15T09:26:03;12.10;99.90
29731;DHT22;16639;51.488;0.152;2022-11-15T09:28:32;12.20;99.90
29731;DHT22;16639;51.488;0.152;2022-11-15T09:31:03;12.10;99.90
29731;DHT22;16639;51.488;0.152;2022-11-15T09:33:31;12.10;99.90
29731;DHT22;16639;51.488;0.152;2022-11-15T09:36:01;12.10;99.90
29731;DHT22;16639;51.488;0.152;2022-11-15T09:38:29;12.10;99.90
29731;DHT22;16639;51.488;0.152;2022-11-15T09:41:22;12.10;99.90
29731;DHT22;16639;51.488;0.152;2022-11-15T09:46:54;12.10;99.90
29731;DHT22;16639;51.488;0.152;2022-11-15T09:49:24;12.20;99.90
29731;DHT22;16639;51.488;0.152;2022-11-15T09:51:53;12.20;99.90
29731;DHT22;16639;51.488;0.152;2022-11-15T09:54:29;12.10;99.90
29731;DHT22;16639;51.488;0.152;2022-11-15T10:00:38;12.10;99.90
29731;DHT22;16639;51.488;0.152;2022-11-15T10:03:24;12.10;99.90
29731;DHT22;16639;51.488;0.152;2022-11-15T10:05:57;12.30;99.90
29731;DHT22;16639;51.488;0.152;2022-11-15T10:11:35;12.10;99.90
29731;DHT22;16639;51.488;0.152;2022-11-15T10:14:24;12.10;99.90
29731;DHT22;16639;51.488;0.152;2022-11-15T10:25:00;12.20;99.90
29731;DHT22;16639;51.488;0.152;2022-11-15T10:27:29;12.20;99.90
29731;DHT22;16639;51.488;0.152;2022-11-15T10:29:56;12.20;99.90
29731;DHT22;16639;51.488;0.152;2022-11-15T10:32:24;12.20;99.90
29731;DHT22;16639;51.488;0.152;2022-11-15T10:34:52;12.20;99.90
29731;DHT22;16639;51.488;0.152;2022-11-15T10:37:30;12.20;99.90
29731;DHT22;16639;51.488;0.152;2022-11-15T10:40:22;12.10;99.90
29731;DHT22;16639;51.488;0.152;2022-11-15T10:45:37;12.20;99.90
29731;DHT22;16639;51.488;0.152;2022-11-15T10:50:51;12.30;99.90
29731;DHT22;16639;51.488;0.152;2022-11-15T10:55:53;12.90;99.90
29731;DHT22;16639;51.488;0.152;2022-11-15T11:01:32;12.20;99.90
29731;DHT22;16639;51.488;0.152;2022-11-15T11:04:06;12.20;99.90
29731;DHT22;16639;51.488;0.152;2022-11-15T11:07:00;12.50;99.90
29731;DHT22;16639;51.488;0.152;2022-11-15T11:09:28;12.30;99.90
29731;DHT22;16639;51.488;0.152;2022-11-15T11:11:58;12.60;99.90
29731;DHT22;16639;51.488;0.152;2022-11-15T11:14:30;12.30;99.90
29731;DHT22;16639;51.488;0.152;2022-11-15T11:17:45;12.30;99.90
29731;DHT22;16639;51.488;0.152;2022-11-15T11:20:22;12.50;99.90
29731;DHT22;16639;51.488;0.152;2022-11-15T11:23:01;12.30;99.90
29731;DHT22;16639;51.488;0.152;2022-11-15T11:25:46;12.30;99.90
29731;DHT22;16639;51.488;0.152;2022-11-15T11:31:17;12.30;99.90
29731;DHT22;16639;51.488;0.152;2022-11-15T11:34:13;12.30;99.90
29731;DHT22;16639;51.488;0.152;2022-11-15T11:36:52;12.30;99.90
29731;DHT22;16639;51.488;0.152;2022-11-15T11:39:25;12.30;99.90
29731;DHT22;16639;51.488;0.152;2022-11-15T11:42:15;12.30;99.90
29731;DHT22;16639;51.488;0.152;2022-11-15T11:45:15;12.30;99.90
29731;DHT22;16639;51.488;0.152;2022-11-15T11:47:53;12.30;99.90
29731;DHT22;16639;51.488;0.152;2022-11-15T11:50:26;12.40;99.90
29731;DHT22;16639;51.488;0.152;2022-11-15T11:55:37;12.40;99.90
29731;DHT22;16639;51.488;0.152;2022-11-15T11:58:12;12.40;99.90
29731;DHT22;16639;51.488;0.152;2022-11-15T12:00:54;12.30;99.90
29731;DHT22;16639;51.488;0.152;2022-11-15T12:06:45;12.20;99.90
29731;DHT22;16639;51.488;0.152;2022-11-15T12:08:56;12.30;99.90
29731;DHT22;16639;51.488;0.152;2022-11-15T12:11:38;12.30;99.90
29731;DHT22;16639;51.488;0.152;2022-11-15T12:14:27;12.30;99.90
29731;DHT22;16639;51.488;0.152;2022-11-15T12:16:57;12.30;99.90
29731;DHT22;16639;51.488;0.152;2022-11-15T12:19:26;12.30;99.90
29731;DHT22;16639;51.488;0.152;2022-11-15T12:24:57;12.30;99.90
29731;DHT22;16639;51.488;0.152;2022-11-15T12:30:15;12.50;99.90
29731;DHT22;16639;51.488;0.152;2022-11-15T12:32:56;12.30;99.90
29731;DHT22;16639;51.488;0.152;2022-11-15T12:37:55;12.40;99.90
29731;DHT22;16639;51.488;0.152;2022-11-15T12:43:10;12.40;99.90
29731;DHT22;16639;51.488;0.152;2022-11-15T12:45:52;12.40;99.90
29731;DHT22;16639;51.488;0.152;2022-11-15T12:51:02;12.40;99.90
29731;DHT22;16639;51.488;0.152;2022-11-15T12:53:32;12.40;99.90
29731;DHT22;16639;51.488;0.152;2022-11-15T12:58:41;12.50;99.90
29731;DHT22;16639;51.488;0.152;2022-11-15T13:04:28;12.50;99.90
29731;DHT22;16639;51.488;0.152;2022-11-15T13:07:05;12.50;99.90
29731;DHT22;16639;51.488;0.152;2022-11-15T13:14:52;12.80;99.90
29731;DHT22;16639;51.488;0.152;2022-11-15T13:17:38;12.60;99.90
29731;DHT22;16639;51.488;0.152;2022-11-15T13:22:46;12.60;99.90
29731;DHT22;16639;51.488;0.152;2022-11-15T13:28:30;12.60;99.90
29731;DHT22;16639;51.488;0.152;2022-11-15T13:31:13;12.60;99.90
29731;DHT22;16639;51.488;0.152;2022-11-15T13:33:43;12.70;99.90
29731;DHT22;16639;51.488;0.152;2022-11-15T13:36:15;12.70;99.90
29731;DHT22;16639;51.488;0.152;2022-11-15T13:38:54;12.70;99.90
29731;DHT22;16639;51.488;0.152;2022-11-15T13:41:25;12.70;99.90
29731;DHT22;16639;51.488;0.152;2022-11-15T13:43:54;12.70;99.90
29731;DHT22;16639;51.488;0.152;2022-11-15T13:46:26;11.40;99.90
29731;DHT22;16639;51.488;0.152;2022-11-15T13:48:57;12.80;99.90
29731;DHT22;16639;51.488;0.152;2022-11-15T13:51:38;12.40;99.90
29731;DHT22;16639;51.488;0.152;2022-11-15T13:56:46;12.80;99.90
29731;DHT22;16639;51.488;0.152;2022-11-15T13:59:25;13.20;99.90
29731;DHT22;16639;51.488;0.152;2022-11-15T14:01:54;12.80;99.90
29731;DHT22;16639;51.488;0.152;2022-11-15T14:04:24;12.80;99.90
29731;DHT22;16639;51.488;0.152;2022-11-15T14:06:55;12.90;99.90
29731;DHT22;16639;51.488;0.152;2022-11-15T14:09:34;12.90;99.90
29731;DHT22;16639;51.488;0.152;2022-11-15T14:12:20;12.80;99.90
29731;DHT22;16639;51.488;0.152;2022-11-15T14:14:48;12.80;99.90
29731;DHT22;16639;51.488;0.152;2022-11-15T14:17:21;12.80;99.90
29731;DHT22;16639;51.488;0.152;2022-11-15T14:19:50;12.80;99.90
29731;DHT22;16639;51.488;0.152;2022-11-15T14:22:24;13.00;99.90
29731;DHT22;16639;51.488;0.152;2022-11-15T14:25:15;12.70;99.90
29731;DHT22;16639;51.488;0.152;2022-11-15T14:28:06;12.50;99.90
29731;DHT22;16639;51.488;0.152;2022-11-15T14:30:31;12.60;99.90
29731;DHT22;16639;51.488;0.152;2022-11-15T14:32:59;12.60;99.90
29731;DHT22;16639;51.488;0.152;2022-11-15T14:35:26;12.60;99.90
29731;DHT22;16639;51.488;0.152;2022-11-15T14:37:53;12.50;99.90
29731;DHT22;16639;51.488;0.152;2022-11-15T14:40:22;12.50;99.90
29731;DHT22;16639;51.488;0.152;2022-11-15T14:42:49;12.40;99.90
29731;DHT22;16639;51.488;0.152;2022-11-15T14:45:19;12.40;99.90
29731;DHT22;16639;51.488;0.152;2022-11-15T14:47:47;12.40;99.90
29731;DHT22;16639;51.488;0.152;2022-11-15T14:50:19;12.40;99.90
29731;DHT22;16639;51.488;0.152;2022-11-15T14:52:48;12.40;99.90
29731;DHT22;16639;51.488;0.152;2022-11-15T14:57:49;12.40;99.90
29731;DHT22;16639;51.488;0.152;2022-11-15T15:00:16;12.40;99.90
29731;DHT22;16639;51.488;0.152;2022-11-15T15:02:45;12.40;99.90
29731;DHT22;16639;51.488;0.152;2022-11-15T15:05:18;12.30;99.90
29731;DHT22;16639;51.488;0.152;2022-11-15T15:07:46;12.40;99.90
29731;DHT22;16639;51.488;0.152;2022-11-15T15:10:15;12.40;99.90
29731;DHT22;16639;51.488;0.152;2022-11-15T15:13:04;12.30;99.90
29731;DHT22;16639;51.488;0.152;2022-11-15T15:15:34;12.30;99.90
29731;DHT22;16639;51.488;0.152;2022-11-15T15:18:02;12.30;99.90
29731;DHT22;16639;51.488;0.152;2022-11-15T15:20:38;12.30;99.90
29731;DHT22;16639;51.488;0.152;2022-11-15T15:23:17;12.30;99.90
29731;DHT22;16639;51.488;0.152;2022-11-15T15:25:46;12.20;99.90
29731;DHT22;16639;51.488;0.152;2022-11-15T15:28:15;12.20;99.90
29731;DHT22;16639;51.488;0.152;2022-11-15T15:30:43;12.20;99.90
29731;DHT22;16639;51.488;0.152;2022-11-15T15:33:10;12.10;99.90
29731;DHT22;16639;51.488;0.152;2022-11-15T15:35:38;12.10;99.90
29731;DHT22;16639;51.488;0.152;2022-11-15T15:38:05;12.10;99.90
29731;DHT22;16639;51.488;0.152;2022-11-15T15:40:33;12.10;99.90
29731;DHT22;16639;51.488;0.152;2022-11-15T15:43:00;12.10;99.90
29731;DHT22;16639;51.488;0.152;2022-11-15T15:45:28;12.10;99.90
29731;DHT22;16639;51.488;0.152;2022-11-15T15:47:56;12.10;99.90
29731;DHT22;16639;51.488;0.152;2022-11-15T15:50:26;12.10;99.90
29731;DHT22;16639;51.488;0.152;2022-11-15T15:52:56;12.00;99.90
29731;DHT22;16639;51.488;0.152;2022-11-15T15:55:24;12.20;99.90
29731;DHT22;16639;51.488;0.152;2022-11-15T15:57:53;12.00;99.90
29731;DHT22;16639;51.488;0.152;2022-11-15T16:00:21;12.00;99.90
29731;DHT22;16639;51.488;0.152;2022-11-15T16:02:51;12.00;99.90
29731;DHT22;16639;51.488;0.152;2022-11-15T16:05:19;12.00;99.90
29731;DHT22;16639;51.488;0.152;2022-11-15T16:07:47;11.90;99.90
29731;DHT22;16639;51.488;0.152;2022-11-15T16:10:23;11.90;99.90
29731;DHT22;16639;51.488;0.152;2022-11-15T16:12:55;11.80;99.90
29731;DHT22;16639;51.488;0.152;2022-11-15T16:15:25;11.80;99.90
29731;DHT22;16639;51.488;0.152;2022-11-15T16:17:55;11.80;99.90
29731;DHT22;16639;51.488;0.152;2022-11-15T16:20:46;11.80;99.90
29731;DHT22;16639;51.488;0.152;2022-11-15T16:23:17;11.80;99.90
29731;DHT22;16639;51.488;0.152;2022-11-15T16:30:44;11.70;99.90
29731;DHT22;16639;51.488;0.152;2022-11-15T16:33:11;11.70;99.90
29731;DHT22;16639;51.488;0.152;2022-11-15T16:35:39;11.70;99.90
29731;DHT22;16639;51.488;0.152;2022-11-15T16:38:14;11.60;99.90
29731;DHT22;16639;51.488;0.152;2022-11-15T16:40:42;11.70;99.90
29731;DHT22;16639;51.488;0.152;2022-11-15T16:43:10;11.70;99.90
29731;DHT22;16639;51.488;0.152;2022-11-15T16:45:38;11.70;99.90
29731;DHT22;16639;51.488;0.152;2022-11-15T16:48:05;11.70;99.90
29731;DHT22;16639;51.488;0.152;2022-11-15T16:50:34;11.70;99.90
29731;DHT22;16639;51.488;0.152;2022-11-15T16:53:07;11.70;99.90
29731;DHT22;16639;51.488;0.152;2022-11-15T16:55:35;11.60;99.90
29731;DHT22;16639;51.488;0.152;2022-11-15T16:58:02;11.60;99.90
29731;DHT22;16639;51.488;0.152;2022-11-15T17:00:30;11.60;99.90
29731;DHT22;16639;51.488;0.152;2022-11-15T17:02:57;11.70;99.90
29731;DHT22;16639;51.488;0.152;2022-11-15T17:05:24;11.60;99.90
29731;DHT22;16639;51.488;0.152;2022-11-15T17:07:54;11.50;99.90
29731;DHT22;16639;51.488;0.152;2022-11-15T17:10:23;11.50;99.90
29731;DHT22;16639;51.488;0.152;2022-11-15T17:12:51;11.50;99.90
29731;DHT22;16639;51.488;0.152;2022-11-15T17:15:19;11.50;99.90
29731;DHT22;16639;51.488;0.152;2022-11-15T17:17:53;11.50;99.90
29731;DHT22;16639;51.488;0.152;2022-11-15T17:20:23;11.50;99.90
29731;DHT22;16639;51.488;0.152;2022-11-15T17:22:51;11.40;99.90
29731;DHT22;16639;51.488;0.152;2022-11-15T17:25:19;11.40;99.90
29731;DHT22;16639;51.488;0.152;2022-11-15T17:27:46;11.40;99.90
29731;DHT22;16639;51.488;0.152;2022-11-15T17:30:14;11.40;99.90
29731;DHT22;16639;51.488;0.152;2022-11-15T17:32:42;11.30;99.90
29731;DHT22;16639;51.488;0.152;2022-11-15T17:35:11;11.30;99.90
29731;DHT22;16639;51.488;0.152;2022-11-15T17:37:45;11.30;99.90
29731;DHT22;16639;51.488;0.152;2022-11-15T17:40:14;11.70;99.90